createdAt,value
2019-05-21T00:01:03.681Z,18.30
2019-05-21T00:04:00.134Z,19.67
2019-05-21T00:06:45.676Z,21.83
2019-05-21T00:09:18.459Z,19.67
2019-05-21T00:11:54.808Z,21.07
2019-05-21T00:14:49.991Z,21.53
2019-05-21T00:17:30.556Z,18.90
2019-05-21T00:20:24.336Z,20.30
2019-05-21T00:23:15.748Z,20.63
2019-05-21T00:25:49.672Z,20.60
2019-05-21T00:28:43.389Z,20.67
2019-05-21T00:31:59.558Z,21.17
2019-05-21T00:35:17.609Z,21.80
2019-05-21T00:38:34.417Z,29.67
2019-05-21T00:41:51.190Z,23.60
2019-05-21T00:44:30.320Z,21.93
2019-05-21T00:47:07.038Z,22.10
2019-05-21T00:49:37.964Z,22.67
2019-05-21T00:52:14.744Z,26.00
2019-05-21T00:54:58.319Z,27.93
2019-05-21T00:57:32.481Z,29.07
2019-05-21T01:00:22.237Z,28.13
2019-05-21T01:02:59.179Z,29.50
2019-05-21T01:05:34.560Z,30.80
2019-05-21T01:08:14.631Z,29.10
2019-05-21T01:10:56.139Z,30.97
2019-05-21T01:13:37.053Z,37.00
2019-05-21T01:16:14.670Z,28.87
2019-05-21T01:18:56.339Z,29.03
2019-05-21T01:21:35.122Z,31.77
2019-05-21T01:24:07.768Z,32.07
2019-05-21T01:26:44.033Z,31.63
2019-05-21T01:29:20.998Z,32.47
2019-05-21T01:31:55.281Z,31.33
2019-05-21T01:34:28.444Z,32.00
2019-05-21T01:37:04.767Z,30.50
2019-05-21T01:39:42.174Z,32.00
2019-05-21T01:42:21.131Z,31.70
2019-05-21T01:45:04.123Z,33.50
2019-05-21T01:47:39.869Z,31.40
2019-05-21T01:50:23.292Z,36.27
2019-05-21T01:52:54.550Z,34.90
2019-05-21T01:55:43.978Z,35.17
2019-05-21T01:58:21.546Z,33.33
2019-05-21T02:01:01.983Z,31.87
2019-05-21T02:03:46.365Z,34.57
2019-05-21T02:06:21.554Z,31.83
2019-05-21T02:08:53.342Z,35.47
2019-05-21T02:11:34.973Z,35.07
2019-05-21T02:14:13.106Z,39.60
2019-05-21T02:16:44.136Z,36.67
2019-05-21T02:19:21.416Z,35.60
2019-05-21T02:22:05.898Z,38.87
2019-05-21T02:24:47.518Z,34.43
2019-05-21T02:27:23.863Z,30.60
2019-05-21T02:30:06.075Z,32.50
2019-05-21T02:32:43.803Z,40.73
2019-05-21T02:35:21.486Z,45.23
2019-05-21T02:38:03.690Z,38.00
2019-05-21T02:40:38.994Z,31.63
2019-05-21T02:43:10.435Z,31.93
2019-05-21T02:45:42.082Z,33.20
2019-05-21T02:48:19.327Z,35.87
2019-05-21T02:50:59.227Z,32.63
2019-05-21T02:53:39.524Z,39.63
2019-05-21T02:56:17.815Z,37.13
2019-05-21T02:58:54.447Z,38.10
2019-05-21T03:01:52.562Z,35.33
2019-05-21T03:04:25.828Z,33.77
2019-05-21T03:07:19.036Z,29.17
2019-05-21T03:09:59.318Z,34.30
2019-05-21T03:13:02.960Z,29.93
2019-05-21T03:15:38.260Z,31.07
2019-05-21T03:18:14.272Z,33.60
2019-05-21T03:20:50.748Z,35.80
2019-05-21T03:23:23.069Z,30.50
2019-05-21T03:25:57.981Z,31.07
2019-05-21T03:28:34.266Z,29.43
2019-05-21T03:31:14.527Z,31.30
2019-05-21T03:33:48.242Z,31.40
2019-05-21T03:36:33.231Z,29.33
2019-05-21T03:39:10.682Z,29.00
2019-05-21T03:41:46.326Z,29.00
2019-05-21T03:44:30.238Z,30.30
2019-05-21T03:47:11.158Z,28.20
2019-05-21T03:49:46.455Z,29.57
2019-05-21T03:52:31.623Z,33.40
2019-05-21T03:55:19.109Z,32.80
2019-05-21T03:58:01.907Z,29.87
2019-05-21T04:00:36.536Z,31.43
2019-05-21T04:03:21.351Z,33.10
2019-05-21T04:06:07.308Z,30.83
2019-05-21T04:08:43.637Z,35.97
2019-05-21T04:11:17.703Z,35.80
2019-05-21T04:13:57.065Z,36.80
2019-05-21T04:16:38.653Z,33.47
2019-05-21T04:19:19.385Z,32.60
2019-05-21T04:21:50.820Z,35.07
2019-05-21T04:24:31.430Z,32.53
2019-05-21T04:27:07.913Z,33.60
2019-05-21T04:29:45.163Z,33.93
2019-05-21T04:32:47.315Z,32.67
2019-05-21T04:35:46.817Z,32.20
2019-05-21T04:38:25.324Z,27.50
2019-05-21T04:42:07.362Z,31.00
2019-05-21T04:53:16.279Z,28.30
2019-05-21T04:56:23.449Z,27.97
2019-05-21T05:02:53.740Z,26.77
2019-05-21T05:05:56.939Z,28.30
2019-05-21T05:08:41.516Z,30.37
2019-05-21T05:11:50.909Z,29.50
2019-05-21T05:14:46.297Z,31.63
2019-05-21T05:17:20.474Z,26.23
2019-05-21T05:24:00.027Z,29.60
2019-05-21T05:34:56.673Z,28.40
2019-05-21T05:37:44.482Z,27.05
2019-05-21T05:41:40.830Z,28.07
2019-05-21T05:59:53.797Z,23.70
2019-05-21T06:03:07.198Z,23.90
2019-05-21T06:06:15.302Z,26.30
2019-05-21T06:09:00.433Z,24.70
2019-05-21T06:11:55.028Z,23.03
2019-05-21T06:14:44.727Z,22.70
2019-05-21T06:17:55.431Z,21.03
2019-05-21T06:20:39.219Z,23.20
2019-05-21T06:23:30.245Z,22.57
2019-05-21T06:26:28.565Z,21.30
2019-05-21T06:29:08.403Z,25.93
2019-05-21T06:31:55.472Z,27.43
2019-05-21T06:34:48.754Z,27.63
2019-05-21T06:37:41.591Z,26.07
2019-05-21T06:40:53.461Z,25.37
2019-05-21T06:44:15.123Z,24.40
2019-05-21T06:47:44.409Z,25.70
2019-05-21T06:50:37.546Z,25.80
2019-05-21T06:54:02.849Z,22.27
2019-05-21T06:57:15.570Z,24.13
2019-05-21T07:00:36.190Z,26.37
2019-05-21T08:11:29.950Z,26.10
2019-05-21T08:15:08.899Z,28.13
2019-05-21T08:18:00.597Z,30.60
2019-05-21T08:21:10.030Z,28.03
2019-05-21T08:28:30.534Z,31.57
2019-05-21T08:31:02.545Z,30.23
2019-05-21T08:34:26.687Z,28.10
2019-05-21T08:37:31.583Z,25.40
2019-05-21T08:47:30.742Z,28.33
2019-05-21T08:50:18.053Z,25.73
2019-05-21T08:53:37.607Z,25.13
2019-05-21T08:56:51.025Z,26.77
2019-05-21T08:59:52.248Z,29.13
2019-05-21T09:03:10.553Z,25.23
2019-05-21T09:06:31.547Z,26.93
2019-05-21T09:09:21.020Z,29.07
2019-05-21T09:12:34.482Z,30.70
2019-05-21T09:15:40.209Z,27.80
2019-05-21T09:18:41.618Z,26.23
2019-05-21T09:21:46.155Z,26.47
2019-05-21T09:25:17.100Z,24.87
2019-05-21T09:28:29.049Z,28.23
2019-05-21T09:31:58.802Z,26.97
2019-05-21T09:35:02.757Z,28.17
2019-05-21T09:41:47.700Z,31.80
2019-05-21T09:45:28.627Z,44.60
2019-05-21T09:48:34.209Z,31.40
2019-05-21T09:55:17.080Z,27.83
2019-05-21T09:58:27.023Z,29.10
2019-05-21T10:01:47.940Z,36.23
2019-05-21T10:09:01.906Z,38.80
2019-05-21T10:12:01.786Z,40.93
2019-05-21T10:18:16.405Z,46.80
2019-05-21T10:25:05.449Z,25.30
2019-05-21T10:31:11.959Z,27.60
2019-05-21T10:34:42.369Z,27.67
2019-05-21T10:38:20.999Z,28.77
2019-05-21T10:41:41.704Z,28.83
2019-05-21T10:44:59.401Z,27.60
2019-05-21T10:48:10.410Z,27.47
2019-05-21T10:51:19.158Z,34.30
2019-05-21T11:05:31.771Z,30.60
2019-05-21T11:08:23.926Z,28.87
2019-05-21T11:11:44.925Z,30.83
2019-05-21T11:14:40.077Z,32.83
2019-05-21T11:18:10.463Z,33.40
2019-05-21T11:24:29.536Z,33.43
2019-05-21T11:36:04.215Z,29.80
2019-05-21T11:42:23.496Z,39.20
2019-05-21T11:46:09.836Z,34.73
2019-05-21T11:52:43.658Z,35.27
2019-05-21T11:56:01.642Z,34.70
2019-05-21T12:02:46.805Z,25.80
2019-05-21T12:06:33.209Z,26.30
2019-05-21T12:13:27.064Z,25.47
2019-05-21T12:17:13.196Z,27.20
2019-05-21T12:20:36.917Z,24.63
2019-05-21T12:24:18.334Z,22.47
2019-05-21T12:27:46.999Z,27.37
2019-05-21T12:30:47.516Z,26.17
2019-05-21T12:34:26.074Z,27.80
2019-05-21T12:37:21.610Z,25.80
2019-05-21T12:49:29.204Z,28.53
2019-05-21T12:52:18.548Z,24.43
2019-05-21T12:55:35.163Z,25.53
2019-05-21T12:58:25.216Z,25.03
2019-05-21T13:01:54.160Z,25.30
2019-05-21T13:05:06.457Z,29.20
2019-05-21T13:08:43.501Z,28.43
2019-05-21T13:12:30.428Z,29.70
2019-05-21T13:19:47.338Z,29.23
2019-05-21T13:23:43.618Z,33.90
2019-05-21T13:30:53.226Z,31.27
2019-05-21T13:34:23.321Z,32.10
2019-05-21T13:37:59.207Z,30.90
2019-05-21T13:41:16.117Z,28.40
2019-05-21T13:44:37.507Z,31.40
2019-05-21T13:47:58.574Z,33.80
2019-05-21T13:51:13.017Z,31.43
2019-05-21T13:58:42.684Z,30.10
2019-05-21T14:01:55.217Z,28.20
2019-05-21T14:08:13.571Z,28.60
2019-05-21T14:11:59.480Z,27.90
2019-05-21T14:15:07.653Z,24.07
2019-05-21T14:41:57.488Z,20.93
2019-05-21T14:44:44.929Z,21.63
2019-05-21T14:51:34.026Z,20.87
2019-05-21T14:54:59.687Z,22.67
2019-05-21T14:57:58.842Z,29.90
2019-05-21T15:05:26.781Z,20.83
2019-05-21T15:09:05.779Z,33.27
2019-05-21T15:16:17.527Z,26.67
2019-05-21T15:19:45.618Z,27.20
2019-05-21T15:34:01.319Z,24.20
2019-05-21T15:37:58.364Z,23.67
2019-05-21T15:41:12.341Z,25.00
2019-05-21T15:47:31.799Z,24.63
2019-05-21T15:50:31.727Z,25.40
2019-05-21T15:53:56.959Z,28.70
2019-05-21T16:01:26.095Z,28.30
2019-05-21T16:23:31.854Z,23.63
2019-05-21T16:34:31.906Z,21.20
2019-05-21T16:37:57.724Z,23.73
2019-05-21T16:40:37.726Z,24.90
2019-05-21T16:43:28.351Z,22.00
2019-05-21T16:55:08.576Z,21.00
2019-05-21T16:57:56.728Z,23.00
2019-05-21T17:00:54.702Z,23.63
2019-05-21T17:04:00.367Z,19.77
2019-05-21T17:06:52.703Z,22.13
2019-05-21T17:10:15.144Z,20.87
2019-05-21T17:13:50.133Z,24.90
2019-05-21T17:16:52.315Z,24.10
2019-05-21T17:27:28.897Z,22.80
2019-05-21T17:30:39.779Z,20.63
2019-05-21T17:33:48.672Z,18.53
2019-05-21T17:36:37.464Z,22.80
2019-05-21T17:39:46.390Z,21.17
2019-05-21T17:42:41.058Z,21.47
2019-05-21T17:46:05.879Z,23.63
2019-05-21T17:53:08.786Z,18.67
2019-05-21T18:03:47.274Z,21.70
2019-05-21T18:10:33.222Z,19.73
2019-05-21T18:20:46.076Z,33.47
2019-05-21T18:23:46.312Z,44.47
2019-05-21T18:30:37.884Z,36.77
2019-05-21T18:41:54.017Z,50.00
2019-05-21T18:45:44.263Z,44.67
2019-05-21T18:48:28.018Z,37.60
2019-05-21T18:55:03.253Z,39.87
2019-05-21T18:57:52.293Z,36.13
2019-05-21T19:08:11.136Z,33.23
2019-05-21T19:11:56.066Z,30.93
2019-05-21T19:15:32.367Z,34.70
2019-05-21T19:18:54.741Z,29.70
2019-05-21T19:22:07.186Z,27.50
2019-05-21T19:27:43.188Z,19.57
2019-05-21T19:34:07.539Z,18.00
2019-05-21T19:36:45.277Z,18.80
2019-05-21T19:43:21.282Z,15.87
2019-05-21T19:47:12.172Z,19.77
2019-05-21T19:49:55.024Z,22.03
2019-05-21T19:53:39.897Z,22.83
2019-05-21T19:57:21.873Z,22.47
2019-05-21T20:04:15.032Z,21.00
2019-05-21T20:07:09.090Z,25.77
2019-05-21T20:10:34.285Z,23.50
2019-05-21T20:14:03.045Z,21.43
2019-05-21T20:18:07.113Z,23.30
2019-05-21T20:20:58.753Z,22.83
2019-05-21T20:23:50.546Z,29.27
2019-05-21T20:35:12.778Z,23.53
2019-05-21T20:38:23.299Z,20.47
2019-05-21T20:41:13.077Z,22.97
2019-05-21T20:44:27.564Z,25.20
2019-05-21T20:47:59.965Z,29.13
2019-05-21T20:51:26.012Z,19.60
2019-05-21T21:04:42.476Z,30.67
2019-05-21T21:15:15.556Z,31.80
2019-05-21T21:18:06.959Z,28.97
2019-05-21T21:21:22.301Z,30.53
2019-05-21T21:24:04.543Z,31.53
2019-05-21T21:27:44.891Z,29.60
2019-05-21T21:31:01.580Z,33.90
2019-05-21T21:37:47.241Z,31.90
2019-05-21T21:41:00.915Z,88.77
2019-05-21T21:44:33.486Z,34.03
2019-05-21T21:51:36.670Z,40.50
2019-05-21T21:54:47.337Z,36.20
2019-05-21T22:01:32.218Z,36.40
2019-05-21T22:04:35.081Z,37.10
2019-05-21T22:07:25.071Z,36.33
2019-05-21T22:10:25.912Z,37.50
2019-05-21T22:13:41.062Z,39.60
2019-05-21T22:16:42.535Z,36.97
2019-05-21T22:20:06.389Z,33.53
2019-05-21T22:23:24.144Z,33.80
2019-05-21T22:26:43.800Z,37.47
2019-05-21T22:29:22.795Z,48.43
2019-05-21T22:31:55.229Z,41.50
2019-05-21T22:34:27.165Z,38.70
2019-05-21T22:37:13.122Z,42.23
2019-05-21T22:39:39.972Z,42.03
2019-05-21T22:42:26.212Z,39.80
2019-05-21T22:45:21.163Z,42.20
2019-05-21T22:47:54.496Z,40.50
2019-05-21T22:50:39.291Z,40.10
2019-05-21T22:53:19.098Z,41.47
2019-05-21T22:56:09.119Z,38.17
2019-05-21T22:59:05.626Z,41.77
2019-05-21T23:01:52.951Z,43.23
2019-05-21T23:08:21.169Z,43.97
2019-05-21T23:11:13.704Z,40.90
2019-05-21T23:14:06.035Z,37.87
2019-05-21T23:16:51.444Z,37.57
2019-05-21T23:19:48.833Z,35.80
2019-05-21T23:22:33.040Z,40.40
2019-05-21T23:28:21.076Z,40.10
2019-05-21T23:31:00.574Z,39.00
2019-05-21T23:33:54.621Z,40.53
2019-05-21T23:36:39.698Z,38.30
2019-05-21T23:39:16.050Z,38.50
2019-05-21T23:42:29.391Z,38.50
2019-05-21T23:45:28.341Z,41.70
2019-05-21T23:48:20.523Z,38.67
2019-05-21T23:51:17.532Z,42.17
2019-05-21T23:54:03.341Z,37.77
2019-05-21T23:57:07.880Z,41.50
2019-05-21T23:59:50.882Z,41.67
